Time;durP1;ratioP1;P1;durP2;ratioP2;P2;SDS_P1;SDS_P2;PMS_P1;PMS_P2;Temp;Humidity;BMP_temperature;BMP_pressure;BME280_temperature;BME280_humidity;BME280_pressure;Samples;Min_cycle;Max_cycle;Signal;HPM_P1;HPM_P2
2022/06/11 00:02:20;;;;;;;6.85;3.78;;;22.00;99.90;;;;;;5019002;28;20215;-75
2022/06/11 00:04:46;;;;;;;6.93;3.60;;;22.00;99.90;;;;;;4997851;28;20258;-77
2022/06/11 00:07:16;;;;;;;6.95;3.78;;;22.00;99.90;;;;;;5052325;28;20168;-77
2022/06/11 00:09:42;;;;;;;7.53;3.33;;;22.00;99.90;;;;;;5033142;28;20235;-77
2022/06/11 00:12:09;;;;;;;5.93;3.38;;;21.90;99.90;;;;;;5053449;28;20220;-77
2022/06/11 00:14:35;;;;;;;4.82;3.25;;;21.90;99.90;;;;;;5039700;28;20234;-78
2022/06/11 00:17:04;;;;;;;7.65;3.70;;;21.90;99.90;;;;;;5054134;28;20238;-77
2022/06/11 00:19:31;;;;;;;4.25;3.28;;;21.90;99.90;;;;;;5051903;28;20629;-78
2022/06/11 00:21:57;;;;;;;6.90;3.80;;;21.80;99.90;;;;;;5039808;28;20305;-78
2022/06/11 00:24:24;;;;;;;6.72;3.58;;;21.70;99.90;;;;;;5050993;28;20664;-79
2022/06/11 00:26:51;;;;;;;5.13;3.30;;;21.70;99.90;;;;;;5053225;28;20191;-78
2022/06/11 00:29:19;;;;;;;12.07;4.15;;;21.80;99.90;;;;;;5053159;28;20223;-78
2022/06/11 00:31:46;;;;;;;6.13;3.30;;;21.80;99.90;;;;;;5037920;28;20242;-78
2022/06/11 00:34:12;;;;;;;6.45;3.40;;;21.70;99.90;;;;;;5030043;28;20259;-78
2022/06/11 00:36:38;;;;;;;6.30;3.28;;;21.80;99.90;;;;;;5055303;28;20199;-78
2022/06/11 00:39:07;;;;;;;6.03;3.50;;;21.70;99.90;;;;;;5042829;28;20204;-79
2022/06/11 00:41:35;;;;;;;7.45;3.72;;;21.70;99.90;;;;;;5052291;28;20302;-78
2022/06/11 00:44:01;;;;;;;6.97;3.40;;;21.70;99.90;;;;;;5034075;28;20208;-78
2022/06/11 00:46:46;;;;;;;7.57;3.40;;;21.70;99.90;;;;;;5052595;28;20518;-78
2022/06/11 00:49:22;;;;;;;7.80;4.00;;;21.70;99.90;;;;;;5048498;28;20204;-79
2022/06/11 00:51:53;;;;;;;6.70;3.75;;;21.70;99.90;;;;;;5029464;28;20226;-77
2022/06/11 00:54:25;;;;;;;4.25;3.33;;;21.70;99.90;;;;;;5054436;28;20210;-78
2022/06/11 00:56:56;;;;;;;4.63;3.72;;;21.70;99.90;;;;;;5033563;28;20677;-78
2022/06/11 00:59:29;;;;;;;4.15;3.10;;;21.70;99.90;;;;;;5051992;28;20336;-77
2022/06/11 01:01:55;;;;;;;9.43;3.70;;;21.60;99.90;;;;;;5037983;28;20302;-78
2022/06/11 01:04:48;;;;;;;4.95;3.60;;;21.60;99.90;;;;;;5047191;28;20253;-78
2022/06/11 01:07:44;;;;;;;5.82;3.85;;;21.60;99.90;;;;;;5048009;28;20280;-78
2022/06/11 01:10:23;;;;;;;9.70;3.95;;;21.50;99.90;;;;;;5026967;28;20200;-77
2022/06/11 01:13:31;;;;;;;3.88;3.15;;;21.50;99.90;;;;;;5034612;28;20196;-77
2022/06/11 01:16:07;;;;;;;6.05;3.55;;;21.50;99.90;;;;;;5017507;28;20196;-77
2022/06/11 01:19:04;;;;;;;5.93;3.67;;;21.50;99.90;;;;;;5033930;28;20717;-77
2022/06/11 01:21:46;;;;;;;8.93;3.60;;;21.40;99.90;;;;;;5002576;28;20212;-78
2022/06/11 01:24:49;;;;;;;8.20;3.97;;;21.30;99.90;;;;;;5054466;28;20203;-78
2022/06/11 01:27:44;;;;;;;6.90;3.97;;;21.20;99.90;;;;;;5052196;28;20203;-78
2022/06/11 01:30:24;;;;;;;5.57;3.35;;;21.30;99.90;;;;;;5030943;28;20207;-77
2022/06/11 01:33:11;;;;;;;8.05;3.63;;;21.10;99.90;;;;;;5037325;28;20214;-79
2022/06/11 01:35:40;;;;;;;7.05;3.70;;;21.10;99.90;;;;;;5035615;28;20211;-78
2022/06/11 01:38:20;;;;;;;8.95;3.92;;;21.10;99.90;;;;;;5031579;28;20207;-77
2022/06/11 01:40:59;;;;;;;6.88;3.72;;;21.10;99.90;;;;;;5046359;28;20222;-79
2022/06/11 01:43:36;;;;;;;5.93;3.28;;;21.20;99.90;;;;;;5047394;28;20171;-79
2022/06/11 01:46:06;;;;;;;8.15;3.72;;;21.10;99.90;;;;;;5017605;28;20201;-78
2022/06/11 01:48:32;;;;;;;9.20;3.75;;;21.20;99.90;;;;;;5033920;28;20216;-78
2022/06/11 01:51:27;;;;;;;4.40;3.25;;;21.20;99.90;;;;;;5026358;28;20204;-79
2022/06/11 01:54:11;;;;;;;6.43;3.60;;;21.10;99.90;;;;;;5028359;28;20208;-79
2022/06/11 01:57:21;;;;;;;5.75;3.08;;;21.10;99.90;;;;;;5022795;28;20279;-78
2022/06/11 02:00:13;;;;;;;4.60;2.92;;;21.10;99.90;;;;;;5040933;28;20235;-78
2022/06/11 02:03:05;;;;;;;7.15;3.55;;;21.10;99.90;;;;;;5034485;28;20768;-78
2022/06/11 02:06:02;;;;;;;7.53;3.50;;;21.10;99.90;;;;;;5040443;28;20212;-78
2022/06/11 02:08:39;;;;;;;6.68;3.60;;;21.10;99.90;;;;;;5022967;28;20208;-78
2022/06/11 02:11:10;;;;;;;4.57;3.20;;;21.00;99.90;;;;;;5040558;28;20216;-78
2022/06/11 02:13:54;;;;;;;5.93;3.30;;;20.90;99.90;;;;;;5024327;28;20187;-78
2022/06/11 02:16:26;;;;;;;3.22;2.92;;;20.90;99.90;;;;;;5026415;28;20164;-78
2022/06/11 02:18:54;;;;;;;5.72;3.22;;;21.00;99.90;;;;;;5002105;28;20215;-78
2022/06/11 02:21:32;;;;;;;4.38;2.70;;;20.90;99.90;;;;;;5043188;28;20239;-78
2022/06/11 02:24:05;;;;;;;4.35;3.15;;;20.90;99.90;;;;;;5020533;28;20594;-78
2022/06/11 02:26:37;;;;;;;3.67;3.10;;;21.00;99.90;;;;;;5026405;28;20267;-78
2022/06/11 02:29:04;;;;;;;5.63;2.95;;;21.00;99.90;;;;;;5025907;28;20215;-78
2022/06/11 02:31:43;;;;;;;5.15;2.70;;;20.90;99.90;;;;;;5042762;28;20204;-78
2022/06/11 02:34:10;;;;;;;6.32;3.08;;;20.90;99.90;;;;;;5025540;28;20176;-78
2022/06/11 02:36:54;;;;;;;4.35;2.72;;;21.00;99.90;;;;;;5041854;28;20211;-77
2022/06/11 02:39:20;;;;;;;5.07;2.85;;;20.90;99.90;;;;;;5024851;28;20247;-78
2022/06/11 02:41:47;;;;;;;7.47;3.50;;;20.90;99.90;;;;;;5016264;28;20220;-78
2022/06/11 02:44:13;;;;;;;5.28;3.13;;;21.00;99.90;;;;;;5041703;28;20219;-78
2022/06/11 02:46:43;;;;;;;6.60;3.28;;;20.90;99.90;;;;;;5018472;28;20180;-79
2022/06/11 02:49:31;;;;;;;8.88;3.50;;;20.90;99.90;;;;;;5019582;28;20185;-79
2022/06/11 02:52:02;;;;;;;6.03;2.83;;;20.80;99.90;;;;;;5011813;28;20220;-80
2022/06/11 02:54:28;;;;;;;3.83;2.80;;;20.90;99.90;;;;;;5035388;28;20270;-79
2022/06/11 02:56:57;;;;;;;6.18;3.00;;;20.90;99.90;;;;;;5017459;28;20222;-79
2022/06/11 02:59:24;;;;;;;5.13;3.13;;;20.90;99.90;;;;;;5035554;28;20294;-78
2022/06/11 03:01:52;;;;;;;4.82;2.85;;;20.90;99.90;;;;;;5029930;28;20703;-80
2022/06/11 03:04:18;;;;;;;7.20;2.92;;;20.90;99.90;;;;;;5012206;28;20713;-79
2022/06/11 03:06:44;;;;;;;4.90;3.00;;;20.90;99.90;;;;;;5023158;28;20208;-80
2022/06/11 03:09:12;;;;;;;3.50;2.53;;;21.00;99.90;;;;;;5006936;28;20226;-78
2022/06/11 03:11:39;;;;;;;5.38;3.00;;;21.00;99.90;;;;;;5026686;28;20300;-78
2022/06/11 03:14:04;;;;;;;4.72;2.80;;;21.10;99.90;;;;;;5005779;28;20316;-78
2022/06/11 03:16:30;;;;;;;5.47;2.90;;;21.00;99.90;;;;;;5029958;28;20608;-78
2022/06/11 03:18:56;;;;;;;9.30;3.33;;;21.00;99.90;;;;;;5004120;28;20245;-78
2022/06/11 03:21:22;;;;;;;6.15;3.13;;;21.00;99.90;;;;;;5021597;28;20244;-77
2022/06/11 03:23:49;;;;;;;3.75;2.63;;;21.00;99.90;;;;;;5022660;28;20221;-78
2022/06/11 03:26:15;;;;;;;3.78;2.28;;;21.10;99.90;;;;;;5024222;28;20267;-78
2022/06/11 03:28:41;;;;;;;6.10;2.78;;;21.10;99.90;;;;;;5010868;28;20404;-78
2022/06/11 03:31:07;;;;;;;7.30;3.03;;;21.10;99.90;;;;;;5017137;28;20203;-78
2022/06/11 03:33:35;;;;;;;6.40;2.97;;;21.20;99.90;;;;;;5013077;28;20205;-77
2022/06/11 03:36:04;;;;;;;5.28;3.00;;;21.10;99.90;;;;;;5027477;28;20200;-78
2022/06/11 03:38:29;;;;;;;6.40;3.10;;;21.20;99.90;;;;;;5005249;28;20215;-78
2022/06/11 03:40:55;;;;;;;4.40;2.42;;;21.20;99.90;;;;;;5007872;28;20284;-78
2022/06/11 03:43:21;;;;;;;4.43;2.45;;;21.20;99.90;;;;;;5023594;28;20177;-76
2022/06/11 03:45:46;;;;;;;3.38;2.25;;;21.10;99.90;;;;;;4999933;28;20233;-79
2022/06/11 03:48:12;;;;;;;3.97;2.70;;;21.20;99.90;;;;;;5017970;28;20575;-77
2022/06/11 03:50:39;;;;;;;3.75;2.65;;;21.20;99.90;;;;;;5002609;28;20270;-77
2022/06/11 03:53:08;;;;;;;4.10;2.88;;;21.20;99.90;;;;;;5028840;28;20212;-78
2022/06/11 03:55:34;;;;;;;6.15;2.95;;;21.30;99.90;;;;;;5016944;28;20165;-79
2022/06/11 03:58:00;;;;;;;8.75;2.90;;;21.30;99.90;;;;;;5017346;28;20168;-78
2022/06/11 04:03:15;;;;;;;7.35;3.10;;;21.30;99.90;;;;;;5038646;28;20613;-78
2022/06/11 04:05:42;;;;;;;4.90;2.65;;;21.30;99.90;;;;;;5028903;28;20215;-78
2022/06/11 04:08:09;;;;;;;4.85;2.97;;;21.30;99.90;;;;;;5018809;28;20207;-77
2022/06/11 04:10:37;;;;;;;5.40;3.05;;;21.30;99.90;;;;;;5037343;28;20677;-78
2022/06/11 04:13:03;;;;;;;4.22;3.00;;;21.30;99.90;;;;;;5020087;28;20191;-78
2022/06/11 04:15:28;;;;;;;8.02;3.45;;;21.40;99.90;;;;;;5027842;28;20289;-77
2022/06/11 04:17:54;;;;;;;3.40;2.70;;;21.40;99.90;;;;;;5020393;28;20208;-78
2022/06/11 04:20:20;;;;;;;4.47;2.65;;;21.50;99.90;;;;;;5027673;28;20259;-78
2022/06/11 04:22:46;;;;;;;3.10;2.55;;;21.50;99.90;;;;;;5026559;28;20390;-78
2022/06/11 04:25:14;;;;;;;4.40;3.10;;;21.50;99.90;;;;;;5037816;28;20172;-78
2022/06/11 04:27:40;;;;;;;3.70;2.80;;;21.40;99.90;;;;;;5027685;28;20236;-78
2022/06/11 04:30:07;;;;;;;5.20;2.90;;;21.40;99.90;;;;;;5036200;28;20207;-78
2022/06/11 04:32:32;;;;;;;4.50;2.75;;;21.40;99.90;;;;;;5034743;28;20207;-77
2022/06/11 04:34:58;;;;;;;4.22;2.80;;;21.60;99.90;;;;;;5045297;28;20235;-78
2022/06/11 04:37:26;;;;;;;4.10;2.72;;;21.60;99.90;;;;;;5037236;28;20186;-77
2022/06/11 04:39:55;;;;;;;3.20;2.90;;;21.60;99.90;;;;;;5023608;28;20212;-77
2022/06/11 04:42:23;;;;;;;9.07;3.85;;;21.70;99.90;;;;;;5031351;23;20260;-71
2022/06/11 04:44:50;;;;;;;5.18;3.20;;;21.80;99.90;;;;;;5015976;28;20204;-71
2022/06/11 04:47:21;;;;;;;6.38;3.25;;;21.90;99.90;;;;;;5016003;28;20212;-72
2022/06/11 04:49:50;;;;;;;3.70;2.67;;;22.00;99.90;;;;;;5015982;28;20208;-72
2022/06/11 04:52:16;;;;;;;6.20;3.22;;;22.10;99.90;;;;;;5020745;28;20204;-71
2022/06/11 04:54:41;;;;;;;5.82;3.17;;;22.20;99.90;;;;;;5019936;28;20208;-72
2022/06/11 04:57:07;;;;;;;5.97;3.28;;;22.10;99.90;;;;;;5013741;28;20209;-72
2022/06/11 04:59:33;;;;;;;7.47;3.63;;;22.10;99.90;;;;;;5012128;28;20255;-71
2022/06/11 05:02:00;;;;;;;20.38;13.70;;;22.20;99.90;;;;;;5027597;28;20302;-73
2022/06/11 05:04:26;;;;;;;8.35;4.57;;;22.20;99.90;;;;;;5017026;28;20173;-72
2022/06/11 05:06:52;;;;;;;5.68;3.42;;;22.20;99.90;;;;;;5013064;28;20228;-72
2022/06/11 05:09:20;;;;;;;5.80;3.42;;;22.20;99.90;;;;;;5012291;28;20201;-73
2022/06/11 05:11:47;;;;;;;4.07;2.95;;;22.20;99.90;;;;;;5023803;28;20664;-72
2022/06/11 05:14:13;;;;;;;5.97;3.30;;;22.10;99.90;;;;;;5025182;28;20678;-73
2022/06/11 05:16:41;;;;;;;7.70;3.42;;;22.20;99.90;;;;;;5012187;28;20173;-72
2022/06/11 05:19:08;;;;;;;4.28;2.90;;;22.20;99.90;;;;;;5017597;28;20197;-73
2022/06/11 05:21:34;;;;;;;6.95;3.47;;;22.10;99.90;;;;;;5023691;28;20216;-72
2022/06/11 05:24:00;;;;;;;5.63;2.95;;;22.20;99.90;;;;;;5025350;28;20200;-73
2022/06/11 05:26:37;;;;;;;5.32;3.58;;;22.30;99.90;;;;;;5023180;28;20204;-73
2022/06/11 05:29:05;;;;;;;5.13;2.88;;;22.40;99.90;;;;;;5019971;28;20262;-72
2022/06/11 05:31:31;;;;;;;6.40;3.13;;;22.60;99.90;;;;;;5022856;28;20873;-74
2022/06/11 05:33:56;;;;;;;4.43;2.92;;;22.80;99.90;;;;;;5024315;28;20296;-73
2022/06/11 05:36:22;;;;;;;4.10;3.05;;;22.90;99.90;;;;;;5023358;28;20550;-73
2022/06/11 05:38:48;;;;;;;5.22;3.10;;;23.00;99.90;;;;;;5021299;28;20335;-73
2022/06/11 05:41:14;;;;;;;3.45;2.85;;;23.10;99.90;;;;;;5019957;28;20315;-73
2022/06/11 05:43:40;;;;;;;8.25;3.42;;;23.20;99.90;;;;;;5022638;28;20725;-73
2022/06/11 05:46:07;;;;;;;7.10;2.92;;;23.10;99.90;;;;;;5023969;28;20571;-73
2022/06/11 05:48:37;;;;;;;5.28;2.70;;;23.20;99.90;;;;;;5023362;28;20664;-73
2022/06/11 05:51:05;;;;;;;3.72;2.65;;;23.40;99.90;;;;;;5025641;28;20217;-72
2022/06/11 05:53:34;;;;;;;5.05;3.25;;;23.60;99.90;;;;;;5022647;28;20678;-72
2022/06/11 05:56:02;;;;;;;5.13;3.17;;;23.70;99.90;;;;;;5023090;28;20215;-72
2022/06/11 05:58:36;;;;;;;4.93;3.13;;;23.80;99.90;;;;;;5021953;28;20180;-72
2022/06/11 06:01:03;;;;;;;5.60;2.63;;;23.80;99.90;;;;;;5021581;28;20204;-72
2022/06/11 06:03:28;;;;;;;4.82;3.03;;;23.90;99.90;;;;;;5020689;28;20211;-72
2022/06/11 06:05:54;;;;;;;3.22;2.65;;;23.90;99.90;;;;;;5023219;28;20200;-72
2022/06/11 06:08:19;;;;;;;5.85;3.03;;;24.10;99.90;;;;;;5022829;28;20219;-72
2022/06/11 06:10:45;;;;;;;4.45;2.78;;;24.20;99.90;;;;;;5021014;28;20633;-72
2022/06/11 06:15:56;;;;;;;6.13;2.92;;;24.10;99.90;;;;;;5012663;28;20723;-72
2022/06/11 06:18:21;;;;;;;7.28;3.08;;;24.20;99.90;;;;;;5014661;28;20208;-72
2022/06/11 06:20:48;;;;;;;5.55;3.17;;;24.20;99.90;;;;;;5019504;28;20212;-72
2022/06/11 06:23:13;;;;;;;6.30;4.15;;;24.30;99.90;;;;;;4994519;28;20248;-72
2022/06/11 06:25:39;;;;;;;4.65;3.03;;;24.50;99.90;;;;;;5028571;28;20200;-72
2022/06/11 06:28:05;;;;;;;4.25;2.97;;;24.50;99.90;;;;;;5002880;28;20642;-72
2022/06/11 06:30:31;;;;;;;6.45;2.90;;;24.40;99.90;;;;;;5021662;28;20209;-72
2022/06/11 06:32:57;;;;;;;4.45;2.67;;;24.50;99.90;;;;;;5023793;28;20258;-73
2022/06/11 06:35:23;;;;;;;4.63;2.70;;;24.50;99.90;;;;;;5005733;28;20303;-72
2022/06/11 06:37:48;;;;;;;3.58;2.50;;;24.70;99.90;;;;;;5002683;28;20311;-72
2022/06/11 06:40:14;;;;;;;7.95;3.00;;;24.90;99.90;;;;;;5002849;28;20381;-73
2022/06/11 06:42:40;;;;;;;4.95;2.40;;;25.10;99.90;;;;;;5022544;28;20213;-72
2022/06/11 06:45:06;;;;;;;5.28;2.80;;;25.10;99.90;;;;;;5023635;28;20660;-72
2022/06/11 06:47:32;;;;;;;7.18;2.40;;;25.20;99.90;;;;;;5004036;28;20219;-73
2022/06/11 06:49:57;;;;;;;5.60;2.22;;;25.10;99.90;;;;;;5006779;28;20216;-72
2022/06/11 06:52:23;;;;;;;5.35;3.00;;;25.20;99.90;;;;;;5023477;28;20684;-72
2022/06/11 06:54:50;;;;;;;5.53;2.75;;;25.20;99.90;;;;;;5020071;28;20263;-72
2022/06/11 06:57:16;;;;;;;6.20;2.80;;;25.30;99.90;;;;;;5002371;28;20260;-72
2022/06/11 06:59:41;;;;;;;7.53;2.58;;;25.50;99.90;;;;;;5022620;28;20216;-73
2022/06/11 07:02:10;;;;;;;5.00;2.83;;;25.60;99.90;;;;;;5023339;28;20212;-73
2022/06/11 07:04:36;;;;;;;3.65;2.78;;;25.80;99.90;;;;;;5004510;28;20184;-73
2022/06/11 07:07:01;;;;;;;5.15;2.33;;;25.80;99.90;;;;;;5003195;28;20183;-73
2022/06/11 07:09:27;;;;;;;4.82;2.63;;;25.60;99.90;;;;;;5020520;28;20288;-73
2022/06/11 07:11:53;;;;;;;5.75;2.50;;;25.70;99.90;;;;;;5005656;28;20215;-72
2022/06/11 07:14:18;;;;;;;5.90;3.15;;;25.60;99.90;;;;;;5005641;28;20544;-72
2022/06/11 07:16:49;;;;;;;5.55;2.58;;;25.60;99.90;;;;;;5020113;28;20243;-73
2022/06/11 07:19:19;;;;;;;6.45;2.70;;;25.40;99.90;;;;;;5026569;28;20179;-72
2022/06/11 07:21:50;;;;;;;4.28;2.78;;;25.70;99.90;;;;;;5022776;28;20204;-73
2022/06/11 07:24:20;;;;;;;6.18;2.80;;;25.90;99.90;;;;;;5002138;28;20212;-73
2022/06/11 07:26:50;;;;;;;4.78;2.40;;;26.10;99.90;;;;;;4997078;28;20247;-74
2022/06/11 07:29:18;;;;;;;4.20;2.30;;;26.30;99.90;;;;;;5014951;28;20200;-73
2022/06/11 07:31:46;;;;;;;4.63;2.40;;;26.50;99.90;;;;;;5025843;28;20244;-73
2022/06/11 07:34:14;;;;;;;5.57;2.28;;;26.70;99.90;;;;;;5032931;28;20183;-73
2022/06/11 07:36:40;;;;;;;4.43;2.53;;;27.00;99.90;;;;;;5032553;28;20211;-73
2022/06/11 07:39:06;;;;;;;5.38;2.60;;;27.10;99.90;;;;;;5049417;28;20203;-73
2022/06/11 07:41:31;;;;;;;5.43;2.40;;;27.20;99.90;;;;;;5028155;28;20727;-74
2022/06/11 07:43:57;;;;;;;3.28;2.33;;;27.60;99.90;;;;;;5032461;28;20207;-74
2022/06/11 07:46:23;;;;;;;5.18;2.55;;;28.20;99.90;;;;;;5050471;28;20655;-74
2022/06/11 07:48:49;;;;;;;4.72;2.58;;;28.60;99.90;;;;;;5032129;28;20216;-74
2022/06/11 07:51:18;;;;;;;6.57;2.60;;;29.20;99.90;;;;;;5045375;28;20581;-73
2022/06/11 07:53:47;;;;;;;4.70;3.15;;;30.00;99.90;;;;;;5050052;28;20199;-75
2022/06/11 07:56:14;;;;;;;8.15;3.47;;;29.70;99.90;;;;;;5047312;28;20200;-75
2022/06/11 07:58:40;;;;;;;4.00;2.85;;;30.40;99.90;;;;;;5031754;28;20230;-75
2022/06/11 08:01:06;;;;;;;5.93;2.15;;;31.30;99.90;;;;;;5043834;28;20203;-75
2022/06/11 08:03:32;;;;;;;3.92;2.63;;;31.00;99.90;;;;;;5050215;28;20214;-75
2022/06/11 08:06:02;;;;;;;3.25;2.15;;;31.30;99.90;;;;;;5026133;28;20196;-76
2022/06/11 08:08:28;;;;;;;3.45;2.17;;;32.00;98.60;;;;;;5029566;28;20353;-77
2022/06/11 08:10:54;;;;;;;3.45;2.17;;;32.50;97.20;;;;;;5032553;28;20191;-76
2022/06/11 08:13:20;;;;;;;3.45;2.00;;;32.80;96.20;;;;;;5050554;28;20177;-77
2022/06/11 08:15:48;;;;;;;5.10;1.83;;;33.00;95.00;;;;;;5032642;28;20196;-77
2022/06/11 08:18:15;;;;;;;4.38;2.00;;;33.20;94.60;;;;;;5032480;28;20215;-76
2022/06/11 08:20:41;;;;;;;3.83;2.08;;;32.70;93.80;;;;;;5049549;28;20223;-76
2022/06/11 08:23:08;;;;;;;6.45;1.95;;;32.60;93.80;;;;;;5032264;28;20706;-76
2022/06/11 08:25:35;;;;;;;4.10;1.80;;;33.00;92.80;;;;;;5043710;28;20572;-76
2022/06/11 08:28:01;;;;;;;3.65;2.03;;;33.30;91.70;;;;;;5032472;28;20196;-76
2022/06/11 08:30:29;;;;;;;4.88;1.83;;;32.70;91.40;;;;;;5031107;28;20250;-75
2022/06/11 08:32:55;;;;;;;3.75;2.05;;;32.60;91.80;;;;;;5027650;28;20216;-76
2022/06/11 08:35:24;;;;;;;4.82;1.90;;;32.40;91.80;;;;;;5024924;28;20723;-74
2022/06/11 08:37:50;;;;;;;4.03;1.80;;;31.80;92.00;;;;;;5049742;28;20215;-75
2022/06/11 08:40:27;;;;;;;3.53;1.88;;;31.60;92.50;;;;;;5033149;28;20199;-75
2022/06/11 08:43:03;;;;;;;2.17;1.95;;;31.70;92.60;;;;;;5006114;28;20215;-75
2022/06/11 08:45:41;;;;;;;5.72;2.65;;;31.30;92.60;;;;;;5008831;28;20201;-73
2022/06/11 08:48:20;;;;;;;2.00;1.75;;;31.50;92.80;;;;;;5011930;28;20215;-73
2022/06/11 08:51:01;;;;;;;8.15;3.65;;;31.50;92.40;;;;;;5027675;28;20197;-73
2022/06/11 08:53:26;;;;;;;7.15;1.88;;;31.50;92.60;;;;;;5014769;28;20351;-74
2022/06/11 08:55:52;;;;;;;3.85;2.28;;;30.70;92.80;;;;;;5025310;28;20239;-74
2022/06/11 08:58:41;;;;;;;3.35;2.20;;;30.60;93.10;;;;;;5022388;28;20199;-74
2022/06/11 09:01:28;;;;;;;3.97;2.13;;;30.80;93.50;;;;;;5027296;28;20754;-73
2022/06/11 09:04:37;;;;;;;3.15;2.17;;;31.10;93.10;;;;;;5030701;28;20227;-74
2022/06/11 09:07:37;;;;;;;5.60;1.80;;;31.80;92.90;;;;;;4992563;28;20228;-74
2022/06/11 09:10:21;;;;;;;4.25;2.10;;;32.10;92.80;;;;;;4999483;28;20219;-75
2022/06/11 09:13:08;;;;;;;2.88;2.28;;;32.10;92.60;;;;;;5007651;28;20223;-74
2022/06/11 09:15:55;;;;;;;3.80;2.10;;;31.90;92.60;;;;;;5015378;28;20204;-75
2022/06/11 09:18:48;;;;;;;5.35;2.10;;;31.80;92.80;;;;;;5006972;28;20316;-73
2022/06/11 09:21:31;;;;;;;4.22;2.00;;;31.70;92.50;;;;;;5008573;28;20205;-73
2022/06/11 09:24:21;;;;;;;3.58;2.67;;;31.00;93.00;;;;;;5030822;28;20211;-75
2022/06/11 09:27:08;;;;;;;2.78;2.00;;;31.70;92.50;;;;;;5026631;28;20231;-75
2022/06/11 09:29:51;;;;;;;3.13;2.20;;;31.90;92.10;;;;;;5027430;28;20200;-74
2022/06/11 09:32:30;;;;;;;2.83;2.08;;;32.00;92.10;;;;;;5026544;28;20212;-75
2022/06/11 09:35:10;;;;;;;4.57;2.00;;;32.70;91.90;;;;;;5018224;28;20290;-75
2022/06/11 09:37:55;;;;;;;4.97;2.45;;;32.60;91.50;;;;;;5046366;28;20179;-75
2022/06/11 09:40:46;;;;;;;3.75;2.22;;;33.00;91.30;;;;;;5049810;28;20196;-73
2022/06/11 09:43:18;;;;;;;4.90;2.22;;;33.00;91.00;;;;;;5029017;28;20232;-75
2022/06/11 09:46:18;;;;;;;4.25;2.05;;;33.00;90.80;;;;;;5032428;28;20204;-74
2022/06/11 09:49:02;;;;;;;2.75;1.95;;;32.80;90.50;;;;;;5050807;28;20215;-74
2022/06/11 09:51:34;;;;;;;5.47;1.90;;;32.60;90.60;;;;;;5034292;28;20579;-74
2022/06/11 09:54:20;;;;;;;2.95;1.65;;;32.60;90.90;;;;;;5046496;28;20230;-75
2022/06/11 09:57:11;;;;;;;3.50;1.38;;;32.70;90.00;;;;;;5044078;28;20253;-75
2022/06/11 09:59:42;;;;;;;5.85;2.67;;;32.60;89.10;;;;;;5017962;28;20212;-73
2022/06/11 10:02:10;;;;;;;5.97;4.13;;;33.00;88.60;;;;;;5051396;28;20576;-75
2022/06/11 10:04:43;;;;;;;2.75;2.00;;;33.10;88.00;;;;;;5052374;28;20506;-75
2022/06/11 10:07:23;;;;;;;5.07;2.45;;;32.80;86.80;;;;;;5034807;28;20169;-75
2022/06/11 10:09:51;;;;;;;3.42;2.15;;;32.40;88.90;;;;;;5014746;28;20261;-74
2022/06/11 10:12:43;;;;;;;2.15;1.63;;;32.40;88.00;;;;;;5031900;28;20208;-74
2022/06/11 10:15:23;;;;;;;4.50;2.22;;;31.90;89.10;;;;;;5033830;28;20200;-74
2022/06/11 10:18:04;;;;;;;2.75;1.30;;;32.00;88.90;;;;;;5043554;28;20249;-74
2022/06/11 10:20:38;;;;;;;4.13;1.30;;;31.80;88.10;;;;;;5049606;28;20222;-74
2022/06/11 10:23:33;;;;;;;1.67;1.13;;;31.70;87.60;;;;;;5051762;28;20962;-74
2022/06/11 10:26:27;;;;;;;2.55;1.58;;;31.20;88.70;;;;;;5032136;28;20204;-74
2022/06/11 10:29:33;;;;;;;3.10;1.45;;;30.90;89.20;;;;;;5039886;28;20207;-74
2022/06/11 10:32:08;;;;;;;3.70;1.60;;;31.10;88.70;;;;;;5016116;28;20297;-74
2022/06/11 10:34:37;;;;;;;3.95;1.85;;;31.30;88.90;;;;;;5032779;28;20171;-75
2022/06/11 10:37:29;;;;;;;3.42;2.00;;;31.70;89.00;;;;;;5031429;28;20179;-74
2022/06/11 10:40:24;;;;;;;2.10;1.45;;;31.70;89.00;;;;;;5030972;28;20625;-75
2022/06/11 10:43:05;;;;;;;6.28;1.70;;;31.50;89.60;;;;;;5056365;23;20228;-79
2022/06/11 10:45:31;;;;;;;2.53;1.33;;;31.70;89.30;;;;;;5027840;28;20700;-78
2022/06/11 10:47:59;;;;;;;2.47;1.50;;;31.60;89.30;;;;;;5023819;28;20216;-79
2022/06/11 10:50:34;;;;;;;3.15;1.75;;;31.50;90.00;;;;;;5015004;28;20248;-78
2022/06/11 10:53:07;;;;;;;7.90;5.28;;;31.50;88.30;;;;;;4991106;28;20225;-79
2022/06/11 10:55:40;;;;;;;2.92;1.73;;;31.80;90.00;;;;;;4981848;28;20200;-79
2022/06/11 10:58:36;;;;;;;3.40;1.10;;;32.10;87.60;;;;;;4981669;28;20192;-78
2022/06/11 11:01:17;;;;;;;2.70;1.38;;;32.00;87.50;;;;;;4990792;28;20260;-78
2022/06/11 11:04:17;;;;;;;2.15;1.20;;;31.80;88.20;;;;;;4975877;28;20221;-76
2022/06/11 11:06:43;;;;;;;3.78;1.40;;;31.50;89.30;;;;;;5008009;28;20201;-77
2022/06/11 11:09:21;;;;;;;5.20;2.50;;;31.30;89.60;;;;;;4994523;28;20213;-73
2022/06/11 11:11:52;;;;;;;2.67;1.90;;;30.60;90.50;;;;;;5012148;28;20243;-76
2022/06/11 11:14:25;;;;;;;3.10;1.40;;;30.40;90.60;;;;;;5007069;28;20678;-76
2022/06/11 11:16:52;;;;;;;3.03;1.55;;;30.50;90.70;;;;;;5005355;28;20633;-78
2022/06/11 11:20:29;;;;;;;2.45;1.40;;;30.40;90.70;;;;;;4994722;28;20180;-78
2022/06/11 11:22:37;;;;;;;3.35;1.55;;;30.20;90.90;;;;;;5009272;28;20285;-77
2022/06/11 11:25:31;;;;;;;2.13;1.30;;;30.10;91.00;;;;;;5011502;28;20193;-76
2022/06/11 11:27:58;;;;;;;3.97;1.48;;;30.50;91.10;;;;;;5024495;28;20212;-76
2022/06/11 11:30:34;;;;;;;4.38;1.67;;;30.70;90.80;;;;;;5010534;28;20201;-75
2022/06/11 11:33:22;;;;;;;3.13;1.38;;;30.50;90.70;;;;;;4989502;28;20220;-74
2022/06/11 11:35:48;;;;;;;4.18;1.30;;;30.40;90.80;;;;;;4994655;28;20225;-75
2022/06/11 11:38:21;;;;;;;4.15;1.65;;;29.70;90.90;;;;;;5003686;28;20244;-77
2022/06/11 11:40:59;;;;;;;3.03;1.10;;;29.80;91.30;;;;;;4994037;28;20665;-77
2022/06/11 11:43:37;;;;;;;4.15;1.40;;;30.30;91.40;;;;;;5002950;28;20223;-76
2022/06/11 11:46:13;;;;;;;2.42;1.27;;;30.40;91.00;;;;;;5011772;28;20204;-75
2022/06/11 11:48:54;;;;;;;3.50;1.42;;;30.30;90.40;;;;;;5009108;28;20284;-74
2022/06/11 11:51:31;;;;;;;2.75;1.33;;;30.20;90.00;;;;;;4999686;28;20205;-76
2022/06/11 11:54:22;;;;;;;2.10;1.20;;;30.20;89.90;;;;;;5010531;28;20208;-77
2022/06/11 11:56:54;;;;;;;2.67;1.30;;;30.00;90.20;;;;;;5010760;28;20201;-75
2022/06/11 11:59:35;;;;;;;4.32;1.15;;;29.90;90.60;;;;;;5010629;28;20690;-77
2022/06/11 12:02:14;;;;;;;3.33;1.48;;;29.90;90.80;;;;;;5002002;28;20290;-77
2022/06/11 12:05:11;;;;;;;5.75;1.80;;;29.40;90.90;;;;;;5008023;28;20315;-75
2022/06/11 12:07:40;;;;;;;4.32;1.58;;;29.30;91.80;;;;;;4995740;28;20184;-75
2022/06/11 12:10:39;;;;;;;3.70;1.40;;;29.30;91.80;;;;;;5010822;28;20188;-76
2022/06/11 12:13:26;;;;;;;4.43;1.65;;;29.10;92.40;;;;;;5011240;28;20714;-76
2022/06/11 12:16:06;;;;;;;4.93;1.60;;;28.60;93.60;;;;;;4999071;28;20220;-77
2022/06/11 12:18:43;;;;;;;6.57;2.05;;;28.20;94.80;;;;;;5003171;28;20200;-76
2022/06/11 12:21:13;;;;;;;3.92;2.17;;;28.00;96.00;;;;;;5010877;28;20209;-75
2022/06/11 12:23:53;;;;;;;3.75;2.10;;;27.70;97.00;;;;;;5010284;28;20240;-76
2022/06/11 12:26:28;;;;;;;3.40;1.85;;;27.80;97.60;;;;;;4996176;28;20236;-75
2022/06/11 12:29:18;;;;;;;5.00;2.33;;;27.60;98.30;;;;;;4996369;28;20213;-77
2022/06/11 12:31:44;;;;;;;7.35;2.70;;;27.60;99.00;;;;;;5040700;28;20259;-74
2022/06/11 12:34:16;;;;;;;4.53;2.38;;;27.40;99.60;;;;;;5015333;28;20232;-75
2022/06/11 12:37:04;;;;;;;4.97;2.40;;;27.30;99.90;;;;;;4996458;28;20576;-75
2022/06/11 12:39:55;;;;;;;4.63;2.30;;;27.40;99.90;;;;;;5014058;28;20201;-75
2022/06/11 12:42:46;;;;;;;6.35;2.90;;;27.10;99.90;;;;;;5006858;28;20223;-75
2022/06/11 12:45:26;;;;;;;4.10;2.10;;;27.10;99.90;;;;;;5004695;28;20205;-76
2022/06/11 12:48:38;;;;;;;3.80;2.22;;;27.10;99.90;;;;;;5006961;28;20200;-76
2022/06/11 12:51:22;;;;;;;3.78;2.42;;;27.20;99.90;;;;;;5023707;28;20262;-75
2022/06/11 12:53:56;;;;;;;5.70;2.17;;;27.30;99.90;;;;;;5013596;28;20670;-76
2022/06/11 12:56:36;;;;;;;7.22;2.13;;;27.20;99.90;;;;;;4996486;28;20244;-76
2022/06/11 12:59:02;;;;;;;4.85;2.45;;;27.40;99.90;;;;;;4990495;28;20266;-75
2022/06/11 13:01:51;;;;;;;3.88;2.00;;;27.70;99.90;;;;;;4995781;28;20193;-76
2022/06/11 13:04:36;;;;;;;5.15;2.33;;;27.80;99.90;;;;;;5010907;28;20169;-75
2022/06/11 13:07:04;;;;;;;6.82;2.20;;;27.90;99.90;;;;;;5012927;28;20201;-76
2022/06/11 13:09:54;;;;;;;3.60;2.10;;;28.00;99.90;;;;;;5013194;28;20571;-75
2022/06/11 13:12:43;;;;;;;5.25;2.03;;;28.50;99.90;;;;;;4995819;28;20208;-74
2022/06/11 13:15:31;;;;;;;4.40;1.65;;;28.80;99.90;;;;;;5008736;28;20209;-75
2022/06/11 13:18:55;;;;;;;3.70;1.75;;;28.90;99.50;;;;;;5013638;28;20216;-74
2022/06/11 13:21:39;;;;;;;6.00;2.15;;;28.90;99.20;;;;;;4952458;28;20305;-73
2022/06/11 13:24:11;;;;;;;3.00;1.77;;;29.00;98.90;;;;;;4971817;28;20214;-76
2022/06/11 13:27:04;;;;;;;5.18;1.88;;;29.00;99.20;;;;;;4995956;28;20295;-76